sensor_id;sensor_type;location;lat;lon;timestamp;pressure;altitude;pressure_sealevel;temperature;humidity
55010;BME280;40903;51.638;7.528;2022-11-02T00:00:29;101042.81;;;13.44;69.83
55010;BME280;40903;51.638;7.528;2022-11-02T00:02:54;101034.81;;;13.47;69.96
55010;BME280;40903;51.638;7.528;2022-11-02T00:05:20;101037.69;;;13.56;69.25
55010;BME280;40903;51.638;7.528;2022-11-02T00:07:49;101022.47;;;13.63;69.01
55010;BME280;40903;51.638;7.528;2022-11-02T00:10:14;101020.03;;;13.75;68.43
55010;BME280;40903;51.638;7.528;2022-11-02T00:12:39;101024.41;;;13.76;68.73
55010;BME280;40903;51.638;7.528;2022-11-02T00:15:05;101023.88;;;13.74;68.47
55010;BME280;40903;51.638;7.528;2022-11-02T00:17:30;101033.63;;;13.80;68.03
55010;BME280;40903;51.638;7.528;2022-11-02T00:19:56;101029.16;;;13.84;68.40
55010;BME280;40903;51.638;7.528;2022-11-02T00:22:22;101022.56;;;13.85;68.10
55010;BME280;40903;51.638;7.528;2022-11-02T00:24:47;101017.09;;;13.85;68.13
55010;BME280;40903;51.638;7.528;2022-11-02T00:27:12;101010.47;;;13.86;68.17
55010;BME280;40903;51.638;7.528;2022-11-02T00:29:37;101013.72;;;13.88;67.96
55010;BME280;40903;51.638;7.528;2022-11-02T00:32:02;101011.41;;;13.95;68.07
55010;BME280;40903;51.638;7.528;2022-11-02T00:34:28;101013.03;;;13.96;67.77
55010;BME280;40903;51.638;7.528;2022-11-02T00:36:53;100997.69;;;13.95;67.93
55010;BME280;40903;51.638;7.528;2022-11-02T00:39:18;100998.59;;;13.90;68.52
55010;BME280;40903;51.638;7.528;2022-11-02T00:41:44;101007.66;;;13.91;68.50
55010;BME280;40903;51.638;7.528;2022-11-02T00:44:09;101011.53;;;13.90;68.75
55010;BME280;40903;51.638;7.528;2022-11-02T00:46:34;101002.84;;;13.96;68.23
55010;BME280;40903;51.638;7.528;2022-11-02T00:48:59;100995.84;;;14.04;67.56
55010;BME280;40903;51.638;7.528;2022-11-02T00:51:24;100993.81;;;14.09;67.56
55010;BME280;40903;51.638;7.528;2022-11-02T00:53:49;101005.59;;;14.10;67.22
55010;BME280;40903;51.638;7.528;2022-11-02T00:56:15;100992.19;;;14.08;67.50
55010;BME280;40903;51.638;7.528;2022-11-02T00:58:40;100998.78;;;14.07;68.03
55010;BME280;40903;51.638;7.528;2022-11-02T01:01:05;101002.53;;;14.11;67.52
55010;BME280;40903;51.638;7.528;2022-11-02T01:03:31;101003.88;;;14.14;67.70
55010;BME280;40903;51.638;7.528;2022-11-02T01:05:56;101002.25;;;14.13;68.17
55010;BME280;40903;51.638;7.528;2022-11-02T01:08:21;101012.50;;;14.07;68.59
55010;BME280;40903;51.638;7.528;2022-11-02T01:10:47;100997.88;;;14.12;68.76
55010;BME280;40903;51.638;7.528;2022-11-02T01:13:12;101012.00;;;14.05;69.09
55010;BME280;40903;51.638;7.528;2022-11-02T01:15:37;101008.88;;;13.98;69.91
55010;BME280;40903;51.638;7.528;2022-11-02T01:18:02;101010.78;;;13.98;70.70
55010;BME280;40903;51.638;7.528;2022-11-02T01:20:27;101013.53;;;13.98;70.75
55010;BME280;40903;51.638;7.528;2022-11-02T01:22:52;101007.84;;;13.94;71.03
55010;BME280;40903;51.638;7.528;2022-11-02T01:25:18;101011.28;;;14.00;70.63
55010;BME280;40903;51.638;7.528;2022-11-02T01:27:43;100998.50;;;13.95;71.10
55010;BME280;40903;51.638;7.528;2022-11-02T01:30:08;101008.25;;;13.88;71.40
55010;BME280;40903;51.638;7.528;2022-11-02T01:32:34;101005.09;;;13.94;71.22
55010;BME280;40903;51.638;7.528;2022-11-02T01:34:59;101001.06;;;13.92;71.47
55010;BME280;40903;51.638;7.528;2022-11-02T01:37:24;101004.19;;;13.85;72.14
55010;BME280;40903;51.638;7.528;2022-11-02T01:39:49;101005.00;;;13.86;71.76
55010;BME280;40903;51.638;7.528;2022-11-02T01:42:16;100998.09;;;13.88;71.59
55010;BME280;40903;51.638;7.528;2022-11-02T01:44:41;100998.59;;;13.90;71.33
55010;BME280;40903;51.638;7.528;2022-11-02T01:47:11;100994.75;;;13.78;71.86
55010;BME280;40903;51.638;7.528;2022-11-02T01:49:39;101003.69;;;13.70;72.37
55010;BME280;40903;51.638;7.528;2022-11-02T01:52:07;100999.63;;;13.81;71.61
55010;BME280;40903;51.638;7.528;2022-11-02T01:54:36;100999.13;;;13.79;71.79
55010;BME280;40903;51.638;7.528;2022-11-02T01:57:08;100990.97;;;13.74;71.88
55010;BME280;40903;51.638;7.528;2022-11-02T01:59:36;100990.28;;;13.82;71.55
55010;BME280;40903;51.638;7.528;2022-11-02T02:02:04;100997.06;;;13.71;71.86
55010;BME280;40903;51.638;7.528;2022-11-02T02:04:30;100993.03;;;13.69;72.14
55010;BME280;40903;51.638;7.528;2022-11-02T02:06:56;100995.25;;;13.53;72.96
55010;BME280;40903;51.638;7.528;2022-11-02T02:09:22;100992.91;;;13.47;73.38
55010;BME280;40903;51.638;7.528;2022-11-02T02:11:48;101002.84;;;13.43;73.59
55010;BME280;40903;51.638;7.528;2022-11-02T02:14:14;101003.75;;;13.38;73.91
55010;BME280;40903;51.638;7.528;2022-11-02T02:17:41;100999.59;;;13.41;73.81
55010;BME280;40903;51.638;7.528;2022-11-02T02:30:06;100996.34;;;13.39;74.75
55010;BME280;40903;51.638;7.528;2022-11-02T02:37:34;100993.13;;;13.50;74.01
55010;BME280;40903;51.638;7.528;2022-11-02T02:40:03;101000.50;;;13.50;73.88
55010;BME280;40903;51.638;7.528;2022-11-02T02:42:32;100984.91;;;13.50;74.22
55010;BME280;40903;51.638;7.528;2022-11-02T02:47:24;100985.91;;;13.41;74.50
55010;BME280;40903;51.638;7.528;2022-11-02T02:49:55;100987.41;;;13.33;75.25
55010;BME280;40903;51.638;7.528;2022-11-02T02:52:22;100988.91;;;13.26;74.95
55010;BME280;40903;51.638;7.528;2022-11-02T02:54:50;100992.16;;;13.28;74.91
55010;BME280;40903;51.638;7.528;2022-11-02T02:57:16;100991.88;;;13.43;74.23
55010;BME280;40903;51.638;7.528;2022-11-02T02:59:43;100996.75;;;13.32;74.95
55010;BME280;40903;51.638;7.528;2022-11-02T03:02:22;100998.38;;;13.33;74.63
55010;BME280;40903;51.638;7.528;2022-11-02T03:04:48;101002.28;;;13.27;74.99
55010;BME280;40903;51.638;7.528;2022-11-02T03:07:15;100986.91;;;13.31;74.81
55010;BME280;40903;51.638;7.528;2022-11-02T03:09:50;100993.78;;;13.29;75.16
55010;BME280;40903;51.638;7.528;2022-11-02T03:12:26;100990.44;;;13.32;74.70
55010;BME280;40903;51.638;7.528;2022-11-02T03:17:33;100984.84;;;13.23;75.10
55010;BME280;40903;51.638;7.528;2022-11-02T03:22:41;100993.06;;;13.23;75.38
55010;BME280;40903;51.638;7.528;2022-11-02T03:30:13;100992.38;;;13.31;75.10
55010;BME280;40903;51.638;7.528;2022-11-02T03:35:21;100999.47;;;13.32;74.81
55010;BME280;40903;51.638;7.528;2022-11-02T03:37:54;101003.13;;;13.28;75.62
55010;BME280;40903;51.638;7.528;2022-11-02T03:40:23;101001.28;;;13.37;75.02
55010;BME280;40903;51.638;7.528;2022-11-02T03:42:50;101005.97;;;13.36;75.09
55010;BME280;40903;51.638;7.528;2022-11-02T03:45:20;101007.00;;;13.40;74.93
55010;BME280;40903;51.638;7.528;2022-11-02T03:47:48;101022.13;;;13.38;74.76
55010;BME280;40903;51.638;7.528;2022-11-02T03:50:15;101019.16;;;13.34;74.90
55010;BME280;40903;51.638;7.528;2022-11-02T03:52:43;101021.06;;;13.34;75.22
55010;BME280;40903;51.638;7.528;2022-11-02T03:55:11;101023.44;;;13.40;74.43
55010;BME280;40903;51.638;7.528;2022-11-02T04:00:06;101028.69;;;13.37;74.59
55010;BME280;40903;51.638;7.528;2022-11-02T04:02:33;101034.25;;;13.32;74.86
55010;BME280;40903;51.638;7.528;2022-11-02T04:04:59;101033.09;;;13.38;74.56
55010;BME280;40903;51.638;7.528;2022-11-02T04:07:26;101034.38;;;13.40;74.34
55010;BME280;40903;51.638;7.528;2022-11-02T04:09:52;101031.03;;;13.43;73.59
55010;BME280;40903;51.638;7.528;2022-11-02T04:12:17;101037.13;;;13.40;73.94
55010;BME280;40903;51.638;7.528;2022-11-02T04:15:01;101041.88;;;13.35;73.89
55010;BME280;40903;51.638;7.528;2022-11-02T04:17:26;101038.25;;;13.39;73.23
55010;BME280;40903;51.638;7.528;2022-11-02T04:20:10;101051.53;;;13.32;74.05
55010;BME280;40903;51.638;7.528;2022-11-02T04:22:36;101049.19;;;13.39;73.39
55010;BME280;40903;51.638;7.528;2022-11-02T04:25:33;101053.88;;;13.39;73.13
55010;BME280;40903;51.638;7.528;2022-11-02T04:28:05;101060.25;;;13.34;73.17
55010;BME280;40903;51.638;7.528;2022-11-02T04:30:30;101061.75;;;13.27;73.59
55010;BME280;40903;51.638;7.528;2022-11-02T04:32:55;101064.41;;;13.13;74.26
55010;BME280;40903;51.638;7.528;2022-11-02T04:35:39;101062.88;;;13.07;74.47
55010;BME280;40903;51.638;7.528;2022-11-02T04:38:04;101068.13;;;13.04;74.65
55010;BME280;40903;51.638;7.528;2022-11-02T04:40:48;101069.56;;;13.01;75.03
55010;BME280;40903;51.638;7.528;2022-11-02T04:43:33;101067.75;;;13.10;74.36
55010;BME280;40903;51.638;7.528;2022-11-02T04:45:58;101085.38;;;13.04;74.94
55010;BME280;40903;51.638;7.528;2022-11-02T04:48:24;101073.56;;;13.09;74.58
55010;BME280;40903;51.638;7.528;2022-11-02T04:50:49;101072.31;;;13.01;74.93
55010;BME280;40903;51.638;7.528;2022-11-02T04:53:14;101073.78;;;12.94;75.20
55010;BME280;40903;51.638;7.528;2022-11-02T04:55:39;101077.38;;;12.89;75.69
55010;BME280;40903;51.638;7.528;2022-11-02T04:58:04;101073.69;;;12.99;75.19
55010;BME280;40903;51.638;7.528;2022-11-02T05:00:29;101077.31;;;12.94;75.61
55010;BME280;40903;51.638;7.528;2022-11-02T05:02:55;101088.31;;;12.89;75.66
55010;BME280;40903;51.638;7.528;2022-11-02T05:05:20;101093.41;;;12.77;76.18
55010;BME280;40903;51.638;7.528;2022-11-02T05:07:45;101094.03;;;12.74;76.79
55010;BME280;40903;51.638;7.528;2022-11-02T05:10:10;101090.59;;;12.82;76.10
55010;BME280;40903;51.638;7.528;2022-11-02T05:12:36;101103.78;;;12.80;76.36
55010;BME280;40903;51.638;7.528;2022-11-02T05:15:01;101092.63;;;12.95;74.94
55010;BME280;40903;51.638;7.528;2022-11-02T05:17:27;101100.84;;;12.95;75.00
55010;BME280;40903;51.638;7.528;2022-11-02T05:19:52;101110.50;;;12.93;75.34
55010;BME280;40903;51.638;7.528;2022-11-02T05:22:17;101098.69;;;12.92;75.41
55010;BME280;40903;51.638;7.528;2022-11-02T05:24:42;101105.72;;;12.98;74.63
55010;BME280;40903;51.638;7.528;2022-11-02T05:27:08;101103.41;;;12.87;75.27
55010;BME280;40903;51.638;7.528;2022-11-02T05:29:34;101114.28;;;12.92;74.75
55010;BME280;40903;51.638;7.528;2022-11-02T05:31:59;101112.31;;;12.97;73.94
55010;BME280;40903;51.638;7.528;2022-11-02T05:34:24;101118.84;;;13.01;73.98
55010;BME280;40903;51.638;7.528;2022-11-02T05:36:50;101109.56;;;12.97;74.00
55010;BME280;40903;51.638;7.528;2022-11-02T05:39:15;101117.31;;;12.90;74.21
55010;BME280;40903;51.638;7.528;2022-11-02T05:41:40;101135.44;;;12.86;74.47
55010;BME280;40903;51.638;7.528;2022-11-02T05:44:06;101129.66;;;12.88;74.68
55010;BME280;40903;51.638;7.528;2022-11-02T05:46:31;101131.63;;;13.06;73.00
55010;BME280;40903;51.638;7.528;2022-11-02T05:48:57;101124.31;;;13.01;73.35
55010;BME280;40903;51.638;7.528;2022-11-02T05:51:22;101131.78;;;12.96;73.64
55010;BME280;40903;51.638;7.528;2022-11-02T05:53:47;101134.91;;;13.08;72.91
55010;BME280;40903;51.638;7.528;2022-11-02T05:56:13;101144.38;;;12.97;73.54
55010;BME280;40903;51.638;7.528;2022-11-02T05:58:38;101134.22;;;12.97;73.24
55010;BME280;40903;51.638;7.528;2022-11-02T06:01:04;101136.38;;;13.00;73.06
55010;BME280;40903;51.638;7.528;2022-11-02T06:03:30;101135.19;;;13.06;72.79
55010;BME280;40903;51.638;7.528;2022-11-02T06:05:59;101138.38;;;12.95;73.50
55010;BME280;40903;51.638;7.528;2022-11-02T06:08:24;101147.50;;;12.85;73.92
55010;BME280;40903;51.638;7.528;2022-11-02T06:10:50;101146.41;;;12.86;73.65
55010;BME280;40903;51.638;7.528;2022-11-02T06:13:15;101159.69;;;12.98;73.18
55010;BME280;40903;51.638;7.528;2022-11-02T06:15:40;101167.81;;;13.03;72.33
55010;BME280;40903;51.638;7.528;2022-11-02T06:18:05;101165.31;;;13.06;72.19
55010;BME280;40903;51.638;7.528;2022-11-02T06:20:31;101164.56;;;13.01;72.75
55010;BME280;40903;51.638;7.528;2022-11-02T06:22:57;101156.94;;;12.98;72.87
55010;BME280;40903;51.638;7.528;2022-11-02T06:25:23;101160.56;;;12.93;73.10
55010;BME280;40903;51.638;7.528;2022-11-02T06:27:51;101170.44;;;12.89;73.37
55010;BME280;40903;51.638;7.528;2022-11-02T06:30:18;101171.31;;;12.85;73.74
55010;BME280;40903;51.638;7.528;2022-11-02T06:32:48;101181.81;;;12.78;74.07
55010;BME280;40903;51.638;7.528;2022-11-02T06:35:13;101182.94;;;12.77;74.18
55010;BME280;40903;51.638;7.528;2022-11-02T06:37:39;101190.16;;;12.68;74.98
55010;BME280;40903;51.638;7.528;2022-11-02T06:40:04;101187.13;;;12.69;75.07
55010;BME280;40903;51.638;7.528;2022-11-02T06:42:29;101191.59;;;12.84;74.11
55010;BME280;40903;51.638;7.528;2022-11-02T06:44:54;101196.41;;;12.92;73.63
55010;BME280;40903;51.638;7.528;2022-11-02T06:47:27;101214.19;;;12.94;73.66
55010;BME280;40903;51.638;7.528;2022-11-02T06:49:53;101211.34;;;13.04;72.85
55010;BME280;40903;51.638;7.528;2022-11-02T06:52:18;101217.44;;;12.96;73.86
55010;BME280;40903;51.638;7.528;2022-11-02T06:54:43;101214.72;;;12.96;73.09
55010;BME280;40903;51.638;7.528;2022-11-02T06:57:08;101226.34;;;13.07;72.55
55010;BME280;40903;51.638;7.528;2022-11-02T06:59:34;101229.91;;;13.07;72.66
55010;BME280;40903;51.638;7.528;2022-11-02T07:01:59;101234.50;;;13.12;72.29
55010;BME280;40903;51.638;7.528;2022-11-02T07:04:24;101245.69;;;13.15;71.70
55010;BME280;40903;51.638;7.528;2022-11-02T07:06:49;101244.72;;;13.06;72.48
55010;BME280;40903;51.638;7.528;2022-11-02T07:09:14;101246.97;;;12.99;73.26
55010;BME280;40903;51.638;7.528;2022-11-02T07:11:40;101253.50;;;13.03;73.17
55010;BME280;40903;51.638;7.528;2022-11-02T07:14:05;101246.50;;;13.16;71.40
55010;BME280;40903;51.638;7.528;2022-11-02T07:16:30;101248.47;;;13.10;72.07
55010;BME280;40903;51.638;7.528;2022-11-02T07:18:55;101270.69;;;13.09;71.46
55010;BME280;40903;51.638;7.528;2022-11-02T07:21:24;101270.34;;;13.15;70.93
55010;BME280;40903;51.638;7.528;2022-11-02T07:23:49;101269.34;;;13.06;71.59
55010;BME280;40903;51.638;7.528;2022-11-02T07:26:15;101282.00;;;13.02;72.27
55010;BME280;40903;51.638;7.528;2022-11-02T07:28:40;101276.44;;;13.07;71.89
55010;BME280;40903;51.638;7.528;2022-11-02T07:31:05;101296.66;;;13.11;72.08
55010;BME280;40903;51.638;7.528;2022-11-02T07:33:30;101294.75;;;13.12;71.57
55010;BME280;40903;51.638;7.528;2022-11-02T07:35:56;101308.38;;;13.17;71.44
55010;BME280;40903;51.638;7.528;2022-11-02T07:38:21;101301.03;;;13.12;72.45
55010;BME280;40903;51.638;7.528;2022-11-02T07:40:47;101308.69;;;13.15;71.43
55010;BME280;40903;51.638;7.528;2022-11-02T07:43:13;101309.72;;;13.19;70.57
55010;BME280;40903;51.638;7.528;2022-11-02T07:45:38;101315.19;;;13.19;70.29
55010;BME280;40903;51.638;7.528;2022-11-02T07:48:03;101313.03;;;13.16;70.15
55010;BME280;40903;51.638;7.528;2022-11-02T07:50:28;101315.22;;;13.14;70.50
55010;BME280;40903;51.638;7.528;2022-11-02T07:52:54;101313.03;;;13.16;70.09
55010;BME280;40903;51.638;7.528;2022-11-02T07:55:21;101331.03;;;13.22;70.47
55010;BME280;40903;51.638;7.528;2022-11-02T07:57:53;101335.91;;;13.25;70.90
55010;BME280;40903;51.638;7.528;2022-11-02T08:00:19;101336.31;;;13.37;68.69
55010;BME280;40903;51.638;7.528;2022-11-02T08:02:44;101338.97;;;13.42;69.33
55010;BME280;40903;51.638;7.528;2022-11-02T08:05:10;101340.41;;;13.40;69.47
55010;BME280;40903;51.638;7.528;2022-11-02T08:07:35;101349.56;;;13.30;69.17
55010;BME280;40903;51.638;7.528;2022-11-02T08:10:00;101370.38;;;13.31;69.52
55010;BME280;40903;51.638;7.528;2022-11-02T08:12:25;101358.75;;;13.39;69.21
55010;BME280;40903;51.638;7.528;2022-11-02T08:14:51;101355.13;;;13.44;69.54
55010;BME280;40903;51.638;7.528;2022-11-02T08:17:16;101360.53;;;13.49;69.79
55010;BME280;40903;51.638;7.528;2022-11-02T08:19:41;101372.78;;;13.56;68.76
55010;BME280;40903;51.638;7.528;2022-11-02T08:22:07;101381.50;;;13.58;68.00
55010;BME280;40903;51.638;7.528;2022-11-02T08:24:32;101384.31;;;13.53;68.23
55010;BME280;40903;51.638;7.528;2022-11-02T08:26:57;101386.31;;;13.48;68.02
55010;BME280;40903;51.638;7.528;2022-11-02T08:29:22;101387.00;;;13.58;67.46
55010;BME280;40903;51.638;7.528;2022-11-02T08:31:48;101385.31;;;13.62;68.88
55010;BME280;40903;51.638;7.528;2022-11-02T08:34:13;101393.09;;;13.73;68.22
55010;BME280;40903;51.638;7.528;2022-11-02T08:36:38;101395.50;;;13.80;68.54
55010;BME280;40903;51.638;7.528;2022-11-02T08:39:03;101400.75;;;13.76;67.67
55010;BME280;40903;51.638;7.528;2022-11-02T08:41:28;101400.84;;;13.90;67.01
55010;BME280;40903;51.638;7.528;2022-11-02T08:43:54;101408.47;;;13.93;66.78
55010;BME280;40903;51.638;7.528;2022-11-02T08:46:19;101408.97;;;13.95;65.99
55010;BME280;40903;51.638;7.528;2022-11-02T08:48:44;101421.06;;;13.94;66.17
55010;BME280;40903;51.638;7.528;2022-11-02T08:51:09;101419.88;;;14.00;66.95
55010;BME280;40903;51.638;7.528;2022-11-02T08:53:35;101419.97;;;14.13;64.96
55010;BME280;40903;51.638;7.528;2022-11-02T08:56:00;101419.91;;;14.18;66.17
55010;BME280;40903;51.638;7.528;2022-11-02T08:58:25;101422.81;;;14.27;65.93
55010;BME280;40903;51.638;7.528;2022-11-02T09:00:53;101427.69;;;14.30;66.04
55010;BME280;40903;51.638;7.528;2022-11-02T09:03:19;101429.84;;;14.33;65.86
55010;BME280;40903;51.638;7.528;2022-11-02T09:05:45;101437.63;;;14.26;64.53
55010;BME280;40903;51.638;7.528;2022-11-02T09:08:11;101435.69;;;14.26;64.82
55010;BME280;40903;51.638;7.528;2022-11-02T09:10:37;101441.13;;;14.31;65.93
55010;BME280;40903;51.638;7.528;2022-11-02T09:13:04;101439.50;;;14.30;65.11
55010;BME280;40903;51.638;7.528;2022-11-02T09:15:31;101448.69;;;14.21;65.56
55010;BME280;40903;51.638;7.528;2022-11-02T09:17:56;101445.03;;;14.25;65.29
55010;BME280;40903;51.638;7.528;2022-11-02T09:20:22;101448.09;;;14.24;64.39
55010;BME280;40903;51.638;7.528;2022-11-02T09:22:47;101452.91;;;14.32;64.87
55010;BME280;40903;51.638;7.528;2022-11-02T09:25:13;101444.00;;;14.40;63.67
55010;BME280;40903;51.638;7.528;2022-11-02T09:27:39;101449.41;;;14.45;63.61
55010;BME280;40903;51.638;7.528;2022-11-02T09:30:04;101461.59;;;14.57;63.12
55010;BME280;40903;51.638;7.528;2022-11-02T09:32:30;101456.03;;;14.76;62.22
55010;BME280;40903;51.638;7.528;2022-11-02T09:34:58;101464.41;;;14.84;62.47
55010;BME280;40903;51.638;7.528;2022-11-02T09:37:23;101462.09;;;14.91;60.73
55010;BME280;40903;51.638;7.528;2022-11-02T09:39:48;101475.88;;;15.05;61.59
55010;BME280;40903;51.638;7.528;2022-11-02T09:42:18;101460.41;;;15.09;60.09
55010;BME280;40903;51.638;7.528;2022-11-02T09:44:54;101474.69;;;15.24;60.89
55010;BME280;40903;51.638;7.528;2022-11-02T09:47:20;101484.56;;;15.25;58.69
55010;BME280;40903;51.638;7.528;2022-11-02T09:49:47;101473.50;;;15.30;59.08
55010;BME280;40903;51.638;7.528;2022-11-02T09:52:15;101473.84;;;15.42;60.06
55010;BME280;40903;51.638;7.528;2022-11-02T09:54:47;101457.44;;;15.51;59.69
55010;BME280;40903;51.638;7.528;2022-11-02T09:57:18;101469.16;;;15.56;59.42
55010;BME280;40903;51.638;7.528;2022-11-02T09:59:45;101469.78;;;15.53;59.19
55010;BME280;40903;51.638;7.528;2022-11-02T10:07:33;101484.09;;;15.37;57.52
55010;BME280;40903;51.638;7.528;2022-11-02T10:10:09;101485.31;;;15.31;57.78
55010;BME280;40903;51.638;7.528;2022-11-02T10:12:48;101483.50;;;15.40;58.59
55010;BME280;40903;51.638;7.528;2022-11-02T10:15:25;101488.50;;;15.65;56.84
55010;BME280;40903;51.638;7.528;2022-11-02T10:17:54;101491.47;;;15.81;57.78
55010;BME280;40903;51.638;7.528;2022-11-02T10:22:45;101490.34;;;15.69;53.86
55010;BME280;40903;51.638;7.528;2022-11-02T10:25:12;101487.09;;;15.67;53.86
55010;BME280;40903;51.638;7.528;2022-11-02T10:27:38;101495.53;;;15.57;53.49
55010;BME280;40903;51.638;7.528;2022-11-02T10:30:13;101482.00;;;15.61;53.49
55010;BME280;40903;51.638;7.528;2022-11-02T10:32:40;101487.59;;;15.69;54.50
55010;BME280;40903;51.638;7.528;2022-11-02T10:35:15;101492.78;;;15.84;53.31
55010;BME280;40903;51.638;7.528;2022-11-02T10:45:51;101507.56;;;15.75;54.58
55010;BME280;40903;51.638;7.528;2022-11-02T10:53:44;101517.44;;;15.89;53.56
55010;BME280;40903;51.638;7.528;2022-11-02T10:58:35;101527.03;;;15.91;53.19
55010;BME280;40903;51.638;7.528;2022-11-02T11:01:06;101527.63;;;15.88;53.83
55010;BME280;40903;51.638;7.528;2022-11-02T11:03:31;101530.09;;;15.63;52.31
55010;BME280;40903;51.638;7.528;2022-11-02T11:06:00;101522.69;;;15.45;53.07
55010;BME280;40903;51.638;7.528;2022-11-02T11:08:30;101523.25;;;15.29;54.71
55010;BME280;40903;51.638;7.528;2022-11-02T11:11:10;101519.50;;;15.25;55.37
55010;BME280;40903;51.638;7.528;2022-11-02T11:13:37;101526.06;;;15.24;55.17
55010;BME280;40903;51.638;7.528;2022-11-02T11:16:02;101533.16;;;15.30;56.04
55010;BME280;40903;51.638;7.528;2022-11-02T11:18:28;101536.50;;;15.27;52.00
55010;BME280;40903;51.638;7.528;2022-11-02T11:20:54;101535.50;;;15.04;54.18
55010;BME280;40903;51.638;7.528;2022-11-02T11:23:20;101542.63;;;14.87;53.18
55010;BME280;40903;51.638;7.528;2022-11-02T11:25:59;101535.66;;;14.76;52.04
55010;BME280;40903;51.638;7.528;2022-11-02T11:33:27;101533.63;;;14.68;52.50
55010;BME280;40903;51.638;7.528;2022-11-02T11:35:54;101548.66;;;14.70;51.73
55010;BME280;40903;51.638;7.528;2022-11-02T11:38:22;101540.41;;;14.70;53.36
55010;BME280;40903;51.638;7.528;2022-11-02T11:40:51;101546.22;;;14.69;53.52
55010;BME280;40903;51.638;7.528;2022-11-02T11:43:18;101544.00;;;14.71;53.04
55010;BME280;40903;51.638;7.528;2022-11-02T11:45:58;101548.59;;;14.75;52.99
55010;BME280;40903;51.638;7.528;2022-11-02T11:48:26;101543.75;;;14.86;52.21
55010;BME280;40903;51.638;7.528;2022-11-02T11:50:56;101542.78;;;14.95;51.88
55010;BME280;40903;51.638;7.528;2022-11-02T11:53:22;101542.75;;;15.14;51.56
55010;BME280;40903;51.638;7.528;2022-11-02T11:55:49;101542.13;;;15.35;50.93
55010;BME280;40903;51.638;7.528;2022-11-02T11:58:21;101545.34;;;15.56;50.95
55010;BME280;40903;51.638;7.528;2022-11-02T12:03:31;101544.88;;;15.94;49.80
55010;BME280;40903;51.638;7.528;2022-11-02T12:08:40;101556.16;;;16.19;47.99
55010;BME280;40903;51.638;7.528;2022-11-02T12:11:17;101556.16;;;16.19;48.25
55010;BME280;40903;51.638;7.528;2022-11-02T12:13:51;101552.66;;;16.27;49.76
55010;BME280;40903;51.638;7.528;2022-11-02T12:24:06;101540.72;;;16.59;48.28
55010;BME280;40903;51.638;7.528;2022-11-02T12:29:39;101536.69;;;16.78;46.45
55010;BME280;40903;51.638;7.528;2022-11-02T12:32:22;101532.81;;;16.79;46.72
55010;BME280;40903;51.638;7.528;2022-11-02T12:35:07;101533.31;;;16.81;46.24
55010;BME280;40903;51.638;7.528;2022-11-02T12:42:55;101535.63;;;16.88;44.75
55010;BME280;40903;51.638;7.528;2022-11-02T12:45:43;101524.97;;;16.95;45.50
55010;BME280;40903;51.638;7.528;2022-11-02T12:51:01;101529.28;;;16.87;44.64
55010;BME280;40903;51.638;7.528;2022-11-02T12:56:07;101530.41;;;16.64;44.63
55010;BME280;40903;51.638;7.528;2022-11-02T12:58:36;101522.25;;;16.59;47.09
55010;BME280;40903;51.638;7.528;2022-11-02T13:06:11;101517.06;;;16.80;45.22
55010;BME280;40903;51.638;7.528;2022-11-02T13:11:24;101522.41;;;16.98;43.82
55010;BME280;40903;51.638;7.528;2022-11-02T13:13:53;101526.78;;;16.99;44.81
55010;BME280;40903;51.638;7.528;2022-11-02T13:16:22;101523.06;;;16.95;45.69
55010;BME280;40903;51.638;7.528;2022-11-02T13:18:49;101517.03;;;16.93;45.48
55010;BME280;40903;51.638;7.528;2022-11-02T13:21:28;101533.06;;;16.91;44.39
55010;BME280;40903;51.638;7.528;2022-11-02T13:23:56;101525.47;;;16.75;44.69
55010;BME280;40903;51.638;7.528;2022-11-02T13:26:24;101522.34;;;16.68;44.09
55010;BME280;40903;51.638;7.528;2022-11-02T13:28:52;101511.41;;;16.76;45.59
55010;BME280;40903;51.638;7.528;2022-11-02T13:33:47;101506.31;;;16.92;45.97
55010;BME280;40903;51.638;7.528;2022-11-02T13:36:14;101515.66;;;16.82;45.14
55010;BME280;40903;51.638;7.528;2022-11-02T13:38:44;101518.91;;;16.62;44.71
55010;BME280;40903;51.638;7.528;2022-11-02T13:48:39;101502.56;;;16.03;48.42
55010;BME280;40903;51.638;7.528;2022-11-02T13:51:15;101503.78;;;15.97;48.95
55010;BME280;40903;51.638;7.528;2022-11-02T13:53:46;101510.13;;;15.98;49.23
55010;BME280;40903;51.638;7.528;2022-11-02T13:56:20;101499.31;;;16.01;49.90
55010;BME280;40903;51.638;7.528;2022-11-02T13:58:46;101499.59;;;16.00;48.67
55010;BME280;40903;51.638;7.528;2022-11-02T14:01:14;101504.91;;;15.96;49.67
55010;BME280;40903;51.638;7.528;2022-11-02T14:03:46;101495.13;;;15.90;50.43
55010;BME280;40903;51.638;7.528;2022-11-02T14:06:13;101488.50;;;15.91;49.89
55010;BME280;40903;51.638;7.528;2022-11-02T14:08:40;101498.28;;;15.97;49.97
55010;BME280;40903;51.638;7.528;2022-11-02T14:21:43;101503.38;;;15.77;49.44
55010;BME280;40903;51.638;7.528;2022-11-02T14:26:54;101503.66;;;15.62;49.64
55010;BME280;40903;51.638;7.528;2022-11-02T14:29:37;101503.78;;;15.57;50.38
55010;BME280;40903;51.638;7.528;2022-11-02T14:32:14;101498.50;;;15.61;50.14
55010;BME280;40903;51.638;7.528;2022-11-02T14:45:40;101497.94;;;15.32;50.64
55010;BME280;40903;51.638;7.528;2022-11-02T14:48:11;101494.44;;;15.26;51.36
55010;BME280;40903;51.638;7.528;2022-11-02T14:50:37;101489.66;;;15.18;52.07
55010;BME280;40903;51.638;7.528;2022-11-02T14:53:04;101480.81;;;15.21;51.51
55010;BME280;40903;51.638;7.528;2022-11-02T14:55:31;101491.06;;;15.16;52.60
55010;BME280;40903;51.638;7.528;2022-11-02T14:58:01;101486.25;;;15.08;52.71
55010;BME280;40903;51.638;7.528;2022-11-02T15:00:34;101490.44;;;15.05;53.63
55010;BME280;40903;51.638;7.528;2022-11-02T15:03:00;101485.31;;;14.99;53.37